RJCC/CTS METAR and TAF weather

Enter ICAO airport designator
Station Type Date Time Source
RJCC METAR 2019/12/05 23:00 UTC NOAA

RJCC 052300Z 18004KT 9999 FEW030 M09/M10 Q1021


Station Type Date Time Source
RJCC Decoded METAR 2019/12/05 23:00 UTC NOAA

Chitose Ab, Japan (RJCC) 42-48N 141-40E 30M
Dec 05, 2019 - 06:00 PM EST / 2019.12.05 2300 UTC
Wind: from the S (180 degrees) at 5 MPH (4 KT):0
Visibility: greater than 7 mile(s):0
Sky conditions: mostly clear
Temperature: 15 F (-9 C)
Windchill: 6 F (-14 C):1
Dew Point: 14 F (-10 C)
Relative Humidity: 92%
Pressure (altimeter): 30.15 in. Hg (1021 hPa)
ob: RJCC 052300Z 18004KT 9999 FEW030 M09/M10 Q1021
cycle: 23

Station Type Date Time Source
RJCC TAF 2019/12/05 18:28 UTC NOAA

TAF RJCC 051705Z 0518/0700 21004KT 9999 FEW020 SCT040
BECMG 0600/0602 32008KT
BECMG 0609/0612 19006KT

Example: see airport list